Terminal Aerodrome Forecast
Issued by NWS

Home | Current Version | Previous Version | Graphics & Text | Print | Product List | Glossary On
Versions: 1 2 3 4 5 6 7 8 9 10 11 12 13 14 15 16 17
651
FTUS43 KBIS 241130
TAFJMS
TAF
KJMS 241130Z 2412/2512 14012KT 5SM BR BKN009 BKN015
     FM241600 15013G20KT P6SM BKN015
     FM241900 15013G20KT P6SM -SHRA VCTS OVC035CB
     FM242300 19012KT P6SM BKN070
     FM251100 27012G18KT P6SM BKN025=

USA.gov is the U.S. government's official web portal to all federal, state and local government web resources and services.